This is the latest recevied weather packets stored in our database for station/object KB1PVH-13. If no packets are shown the sender has not sent any weather packets the latest 10 day(s).
| Time | Temp. | Humidity | Pressure | Rain* | Wind** | Luminosity | Snow |
|---|---|---|---|---|---|---|---|
| 1777965918 | 11.11° C | 78% | 926.7 hPa | 0 mm | - | - | - |
| 1777965337 | 11.11° C | 78% | 926.8 hPa | 0 mm | - | - | - |
| 1777963517 | 11.11° C | 77% | 927.1 hPa | 0 mm | - | - | - |
| 1777959337 | 11.67° C | 74% | 927.1 hPa | 0 mm | - | - | - |
| 1777954536 | 12.22° C | 70% | 927.4 hPa | 0 mm | - | - | - |
| 1777949716 | 12.78° C | 65% | 927.3 hPa | 0 mm | - | - | - |
| 1777946737 | 13.33° C | 61% | 927.4 hPa | 0 mm | - | - | - |
| 1777944916 | 13.89° C | 57% | 927.1 hPa | 0 mm | - | - | - |
| 1777944316 | 14.44° C | 56% | 927 hPa | 0 mm | - | - | - |
| 1777943116 | 14.44° C | 55% | 926.7 hPa | 0 mm | - | - | - |
| 1777940117 | 16.11° C | 48% | 925.5 hPa | 0 mm | - | - | - |
| 1777938316 | 16.67° C | 45% | 925.2 hPa | 0 mm | - | - | - |
| 1777935916 | 17.78° C | 43% | 924.6 hPa | 0 mm | - | - | - |
| 1777935316 | 18.33° C | 42% | 924.5 hPa | 0 mm | - | - | - |
| 1777934716 | 18.33° C | 41% | 924.3 hPa | 0 mm | - | - | - |
| 1777932316 | 20° C | 36% | 924.2 hPa | 0 mm | - | - | - |
| 1777927516 | 22.78° C | 29% | 923.7 hPa | 0 mm | - | - | - |
| 1777926316 | 22.78° C | 28% | 923.8 hPa | 0 mm | - | - | - |
| 1777925716 | 22.78° C | 29% | 923.8 hPa | 0 mm | - | - | - |
| 1777924517 | 22.78° C | 28% | 923.9 hPa | 0 mm | - | - | - |
| 1777920917 | 22.22° C | 29% | 924.1 hPa | 0 mm | - | - | - |
| 1777920316 | 22.22° C | 27% | 924.1 hPa | 0 mm | - | - | - |
| 1777910137 | 20° C | 31% | 925.7 hPa | 0 mm | - | - | - |
| 1777909517 | 19.44° C | 31% | 925.8 hPa | 0 mm | - | - | - |
| 1777908917 | 19.44° C | 31% | 926 hPa | 0 mm | - | - | - |
* Rain latest hour (hover to see other rain measurements)
** Current wind speed in m/s (hover to see current wind gust speed)